X  Close Metar Aviation Weather Data     CYYC Calgary International Airport
Temperature
1°C Temperature
-4°C Dewpoint
70% Humidity



Wind
10 KM/H
6 MPH
3 M/S
5 KTS



200°
SSW
Current Conditions

Partly Cloudy Partly Cloudy
Pressure 1004.42 (hPa) - 29.66 (inHg)
Visibility 14.9 (mile) - 24 (km)
Airport
Airport-code CYYC

Location: Calgary International Airport
Distance: 4 (km)

Metar:
CYYC 020700Z 20005KT 180V270 15SM FEW088 SCT110 01/M04 A2966 RMK AC1AC3 AC TR SLP077

Time: 02-03-2021 00:00 MST